sensor_id;sensor_type;location;lat;lon;timestamp;P1;durP1;ratioP1;P2;durP2;ratioP2
54261;SDS011;40174;52.364;6.452;2022-07-04T00:01:25;5.28;;;2.20;;
54261;SDS011;40174;52.364;6.452;2022-07-04T00:03:52;8.52;;;2.47;;
54261;SDS011;40174;52.364;6.452;2022-07-04T00:06:18;4.95;;;2.13;;
54261;SDS011;40174;52.364;6.452;2022-07-04T00:08:45;7.30;;;2.42;;
54261;SDS011;40174;52.364;6.452;2022-07-04T00:11:13;4.80;;;1.90;;
54261;SDS011;40174;52.364;6.452;2022-07-04T00:13:39;5.53;;;2.05;;
54261;SDS011;40174;52.364;6.452;2022-07-04T00:16:06;5.43;;;2.10;;
54261;SDS011;40174;52.364;6.452;2022-07-04T00:18:32;4.22;;;1.80;;
54261;SDS011;40174;52.364;6.452;2022-07-04T00:20:59;9.30;;;2.67;;
54261;SDS011;40174;52.364;6.452;2022-07-04T00:23:25;5.18;;;2.10;;
54261;SDS011;40174;52.364;6.452;2022-07-04T00:25:52;4.90;;;2.13;;
54261;SDS011;40174;52.364;6.452;2022-07-04T00:28:20;4.85;;;1.90;;
54261;SDS011;40174;52.364;6.452;2022-07-04T00:30:46;5.00;;;2.08;;
54261;SDS011;40174;52.364;6.452;2022-07-04T00:33:13;8.77;;;2.38;;
54261;SDS011;40174;52.364;6.452;2022-07-04T00:35:41;3.17;;;1.73;;
54261;SDS011;40174;52.364;6.452;2022-07-04T00:38:07;5.25;;;2.05;;
54261;SDS011;40174;52.364;6.452;2022-07-04T00:40:34;6.25;;;2.53;;
54261;SDS011;40174;52.364;6.452;2022-07-04T00:43:01;6.47;;;2.20;;
54261;SDS011;40174;52.364;6.452;2022-07-04T00:45:29;6.47;;;2.65;;
54261;SDS011;40174;52.364;6.452;2022-07-04T00:47:56;4.68;;;1.73;;
54261;SDS011;40174;52.364;6.452;2022-07-04T00:50:23;6.05;;;2.13;;
54261;SDS011;40174;52.364;6.452;2022-07-04T00:52:50;6.82;;;2.40;;
54261;SDS011;40174;52.364;6.452;2022-07-04T00:55:18;6.72;;;1.98;;
54261;SDS011;40174;52.364;6.452;2022-07-04T00:57:45;6.20;;;2.60;;
54261;SDS011;40174;52.364;6.452;2022-07-04T01:00:12;4.78;;;2.33;;
54261;SDS011;40174;52.364;6.452;2022-07-04T01:02:40;5.13;;;2.35;;
54261;SDS011;40174;52.364;6.452;2022-07-04T01:05:07;7.43;;;2.42;;
54261;SDS011;40174;52.364;6.452;2022-07-04T01:07:35;6.35;;;2.03;;
54261;SDS011;40174;52.364;6.452;2022-07-04T01:10:02;7.18;;;2.70;;
54261;SDS011;40174;52.364;6.452;2022-07-04T01:12:29;7.20;;;2.08;;
54261;SDS011;40174;52.364;6.452;2022-07-04T01:14:56;5.22;;;1.92;;
54261;SDS011;40174;52.364;6.452;2022-07-04T01:17:23;4.68;;;2.15;;
54261;SDS011;40174;52.364;6.452;2022-07-04T01:19:51;5.80;;;2.10;;
54261;SDS011;40174;52.364;6.452;2022-07-04T01:22:19;4.63;;;2.15;;
54261;SDS011;40174;52.364;6.452;2022-07-04T01:24:47;8.57;;;2.35;;
54261;SDS011;40174;52.364;6.452;2022-07-04T01:27:14;5.60;;;2.42;;
54261;SDS011;40174;52.364;6.452;2022-07-04T01:29:41;5.90;;;2.28;;
54261;SDS011;40174;52.364;6.452;2022-07-04T01:32:08;5.53;;;2.30;;
54261;SDS011;40174;52.364;6.452;2022-07-04T01:34:35;6.18;;;2.25;;
54261;SDS011;40174;52.364;6.452;2022-07-04T01:37:04;5.78;;;2.00;;
54261;SDS011;40174;52.364;6.452;2022-07-04T01:39:32;3.72;;;2.08;;
54261;SDS011;40174;52.364;6.452;2022-07-04T01:41:58;4.93;;;2.13;;
54261;SDS011;40174;52.364;6.452;2022-07-04T01:44:25;6.00;;;2.85;;
54261;SDS011;40174;52.364;6.452;2022-07-04T01:46:52;5.43;;;1.98;;
54261;SDS011;40174;52.364;6.452;2022-07-04T01:49:18;6.88;;;2.38;;
54261;SDS011;40174;52.364;6.452;2022-07-04T01:51:45;4.78;;;2.22;;
54261;SDS011;40174;52.364;6.452;2022-07-04T01:54:12;5.20;;;2.50;;
54261;SDS011;40174;52.364;6.452;2022-07-04T01:56:40;6.90;;;2.85;;
54261;SDS011;40174;52.364;6.452;2022-07-04T01:59:07;6.20;;;2.92;;
54261;SDS011;40174;52.364;6.452;2022-07-04T02:01:34;9.85;;;3.17;;
54261;SDS011;40174;52.364;6.452;2022-07-04T02:04:01;12.27;;;3.45;;
54261;SDS011;40174;52.364;6.452;2022-07-04T02:06:29;8.38;;;3.38;;
54261;SDS011;40174;52.364;6.452;2022-07-04T02:08:57;8.52;;;3.58;;
54261;SDS011;40174;52.364;6.452;2022-07-04T02:11:44;9.85;;;3.80;;
54261;SDS011;40174;52.364;6.452;2022-07-04T02:14:29;9.57;;;3.47;;
54261;SDS011;40174;52.364;6.452;2022-07-04T02:16:56;8.40;;;3.55;;
54261;SDS011;40174;52.364;6.452;2022-07-04T02:19:23;12.10;;;4.07;;
54261;SDS011;40174;52.364;6.452;2022-07-04T02:21:50;9.60;;;3.85;;
54261;SDS011;40174;52.364;6.452;2022-07-04T02:24:17;7.07;;;3.45;;
54261;SDS011;40174;52.364;6.452;2022-07-04T02:26:45;7.78;;;3.30;;
54261;SDS011;40174;52.364;6.452;2022-07-04T02:29:12;8.38;;;3.28;;
54261;SDS011;40174;52.364;6.452;2022-07-04T02:31:38;8.60;;;3.17;;
54261;SDS011;40174;52.364;6.452;2022-07-04T02:34:05;7.13;;;3.25;;
54261;SDS011;40174;52.364;6.452;2022-07-04T02:36:31;11.13;;;3.47;;
54261;SDS011;40174;52.364;6.452;2022-07-04T02:38:58;8.95;;;3.20;;
54261;SDS011;40174;52.364;6.452;2022-07-04T02:41:24;6.40;;;3.22;;
54261;SDS011;40174;52.364;6.452;2022-07-04T02:43:52;7.68;;;2.75;;
54261;SDS011;40174;52.364;6.452;2022-07-04T02:46:19;5.43;;;2.53;;
54261;SDS011;40174;52.364;6.452;2022-07-04T02:48:46;8.43;;;2.72;;
54261;SDS011;40174;52.364;6.452;2022-07-04T02:51:13;11.23;;;3.58;;
54261;SDS011;40174;52.364;6.452;2022-07-04T02:53:40;7.75;;;3.58;;
54261;SDS011;40174;52.364;6.452;2022-07-04T02:56:06;8.77;;;3.10;;
54261;SDS011;40174;52.364;6.452;2022-07-04T02:58:33;8.20;;;3.25;;
54261;SDS011;40174;52.364;6.452;2022-07-04T03:01:01;7.13;;;2.88;;
54261;SDS011;40174;52.364;6.452;2022-07-04T03:03:27;10.60;;;3.40;;
54261;SDS011;40174;52.364;6.452;2022-07-04T03:05:54;6.70;;;2.90;;
54261;SDS011;40174;52.364;6.452;2022-07-04T03:08:21;8.05;;;3.22;;
54261;SDS011;40174;52.364;6.452;2022-07-04T03:10:48;8.65;;;3.80;;
54261;SDS011;40174;52.364;6.452;2022-07-04T03:13:15;8.70;;;3.17;;
54261;SDS011;40174;52.364;6.452;2022-07-04T03:15:41;6.38;;;3.10;;
54261;SDS011;40174;52.364;6.452;2022-07-04T03:18:09;6.22;;;3.08;;
54261;SDS011;40174;52.364;6.452;2022-07-04T03:20:36;4.85;;;2.60;;
54261;SDS011;40174;52.364;6.452;2022-07-04T03:23:03;6.95;;;2.78;;
54261;SDS011;40174;52.364;6.452;2022-07-04T03:25:30;7.55;;;3.15;;
54261;SDS011;40174;52.364;6.452;2022-07-04T03:27:56;8.68;;;3.50;;
54261;SDS011;40174;52.364;6.452;2022-07-04T03:30:23;7.35;;;3.33;;
54261;SDS011;40174;52.364;6.452;2022-07-04T03:32:49;9.40;;;3.42;;
54261;SDS011;40174;52.364;6.452;2022-07-04T03:35:17;8.57;;;2.95;;
54261;SDS011;40174;52.364;6.452;2022-07-04T03:37:44;6.57;;;3.13;;
54261;SDS011;40174;52.364;6.452;2022-07-04T03:40:10;6.03;;;2.75;;
54261;SDS011;40174;52.364;6.452;2022-07-04T03:42:37;8.38;;;3.47;;
54261;SDS011;40174;52.364;6.452;2022-07-04T03:45:04;7.60;;;3.65;;
54261;SDS011;40174;52.364;6.452;2022-07-04T03:47:32;5.60;;;2.83;;
54261;SDS011;40174;52.364;6.452;2022-07-04T03:49:58;7.20;;;2.67;;
54261;SDS011;40174;52.364;6.452;2022-07-04T03:52:26;5.03;;;2.75;;
54261;SDS011;40174;52.364;6.452;2022-07-04T03:54:53;7.95;;;2.83;;
54261;SDS011;40174;52.364;6.452;2022-07-04T03:57:20;10.35;;;3.30;;
54261;SDS011;40174;52.364;6.452;2022-07-04T03:59:46;7.22;;;3.10;;
54261;SDS011;40174;52.364;6.452;2022-07-04T04:02:13;8.13;;;3.28;;
54261;SDS011;40174;52.364;6.452;2022-07-04T04:04:39;8.85;;;3.00;;
54261;SDS011;40174;52.364;6.452;2022-07-04T04:07:23;8.32;;;3.22;;
54261;SDS011;40174;52.364;6.452;2022-07-04T04:09:51;8.10;;;2.97;;
54261;SDS011;40174;52.364;6.452;2022-07-04T04:12:18;5.78;;;2.95;;
54261;SDS011;40174;52.364;6.452;2022-07-04T04:14:44;6.45;;;3.15;;
54261;SDS011;40174;52.364;6.452;2022-07-04T04:17:11;7.70;;;3.00;;
54261;SDS011;40174;52.364;6.452;2022-07-04T04:19:37;4.75;;;2.63;;
54261;SDS011;40174;52.364;6.452;2022-07-04T04:22:04;10.55;;;3.35;;
54261;SDS011;40174;52.364;6.452;2022-07-04T04:24:31;9.02;;;3.05;;
54261;SDS011;40174;52.364;6.452;2022-07-04T04:26:58;5.45;;;2.72;;
54261;SDS011;40174;52.364;6.452;2022-07-04T04:29:25;5.00;;;2.42;;
54261;SDS011;40174;52.364;6.452;2022-07-04T04:31:52;10.18;;;3.53;;
54261;SDS011;40174;52.364;6.452;2022-07-04T04:34:18;7.40;;;3.10;;
54261;SDS011;40174;52.364;6.452;2022-07-04T04:36:45;8.30;;;3.22;;
54261;SDS011;40174;52.364;6.452;2022-07-04T04:39:11;9.98;;;3.35;;
54261;SDS011;40174;52.364;6.452;2022-07-04T04:41:38;7.03;;;3.55;;
54261;SDS011;40174;52.364;6.452;2022-07-04T04:44:06;7.47;;;3.05;;
54261;SDS011;40174;52.364;6.452;2022-07-04T04:46:33;8.25;;;3.15;;
54261;SDS011;40174;52.364;6.452;2022-07-04T04:49:00;7.95;;;3.03;;
54261;SDS011;40174;52.364;6.452;2022-07-04T04:51:26;7.63;;;3.25;;
54261;SDS011;40174;52.364;6.452;2022-07-04T04:53:53;8.88;;;3.35;;
54261;SDS011;40174;52.364;6.452;2022-07-04T04:56:19;10.05;;;3.47;;
54261;SDS011;40174;52.364;6.452;2022-07-04T04:58:46;7.65;;;3.30;;
54261;SDS011;40174;52.364;6.452;2022-07-04T05:01:14;9.90;;;3.85;;
54261;SDS011;40174;52.364;6.452;2022-07-04T05:03:41;6.97;;;3.40;;
54261;SDS011;40174;52.364;6.452;2022-07-04T05:06:08;7.95;;;3.50;;
54261;SDS011;40174;52.364;6.452;2022-07-04T05:08:35;7.18;;;3.72;;
54261;SDS011;40174;52.364;6.452;2022-07-04T05:11:01;9.70;;;3.55;;
54261;SDS011;40174;52.364;6.452;2022-07-04T05:13:28;9.60;;;3.88;;
54261;SDS011;40174;52.364;6.452;2022-07-04T05:15:54;6.78;;;3.17;;
54261;SDS011;40174;52.364;6.452;2022-07-04T05:18:22;6.43;;;3.42;;
54261;SDS011;40174;52.364;6.452;2022-07-04T05:20:49;9.40;;;4.28;;
54261;SDS011;40174;52.364;6.452;2022-07-04T05:23:16;12.07;;;3.67;;
54261;SDS011;40174;52.364;6.452;2022-07-04T05:25:42;14.23;;;3.20;;
54261;SDS011;40174;52.364;6.452;2022-07-04T05:28:09;7.88;;;3.30;;
54261;SDS011;40174;52.364;6.452;2022-07-04T05:30:35;8.63;;;3.13;;
54261;SDS011;40174;52.364;6.452;2022-07-04T05:33:02;8.88;;;2.97;;
54261;SDS011;40174;52.364;6.452;2022-07-04T05:35:30;6.63;;;2.90;;
54261;SDS011;40174;52.364;6.452;2022-07-04T05:37:56;8.93;;;2.97;;
54261;SDS011;40174;52.364;6.452;2022-07-04T05:40:23;8.57;;;2.25;;
54261;SDS011;40174;52.364;6.452;2022-07-04T05:42:50;6.63;;;2.50;;
54261;SDS011;40174;52.364;6.452;2022-07-04T05:45:17;5.93;;;2.30;;
54261;SDS011;40174;52.364;6.452;2022-07-04T05:47:43;6.70;;;2.78;;
54261;SDS011;40174;52.364;6.452;2022-07-04T05:50:10;6.55;;;3.38;;
54261;SDS011;40174;52.364;6.452;2022-07-04T05:52:38;9.00;;;2.80;;
54261;SDS011;40174;52.364;6.452;2022-07-04T05:55:05;7.57;;;2.97;;
54261;SDS011;40174;52.364;6.452;2022-07-04T05:57:33;6.82;;;2.83;;
54261;SDS011;40174;52.364;6.452;2022-07-04T06:00:00;7.65;;;2.30;;
54261;SDS011;40174;52.364;6.452;2022-07-04T06:02:30;10.02;;;3.00;;
54261;SDS011;40174;52.364;6.452;2022-07-04T06:04:57;7.65;;;3.35;;
54261;SDS011;40174;52.364;6.452;2022-07-04T06:07:23;12.18;;;3.38;;
54261;SDS011;40174;52.364;6.452;2022-07-04T06:09:51;8.40;;;2.78;;
54261;SDS011;40174;52.364;6.452;2022-07-04T06:12:18;5.97;;;2.75;;
54261;SDS011;40174;52.364;6.452;2022-07-04T06:14:44;9.45;;;3.53;;
54261;SDS011;40174;52.364;6.452;2022-07-04T06:17:11;11.05;;;3.03;;
54261;SDS011;40174;52.364;6.452;2022-07-04T06:19:38;8.93;;;2.85;;
54261;SDS011;40174;52.364;6.452;2022-07-04T06:22:04;8.23;;;3.55;;
54261;SDS011;40174;52.364;6.452;2022-07-04T06:24:31;10.85;;;3.67;;
54261;SDS011;40174;52.364;6.452;2022-07-04T06:26:59;8.68;;;3.40;;
54261;SDS011;40174;52.364;6.452;2022-07-04T06:29:26;12.95;;;3.88;;
54261;SDS011;40174;52.364;6.452;2022-07-04T06:31:52;9.10;;;3.50;;
54261;SDS011;40174;52.364;6.452;2022-07-04T06:34:19;7.88;;;3.42;;
54261;SDS011;40174;52.364;6.452;2022-07-04T06:37:03;9.50;;;3.28;;
54261;SDS011;40174;52.364;6.452;2022-07-04T06:39:30;8.65;;;3.25;;
54261;SDS011;40174;52.364;6.452;2022-07-04T06:41:56;7.53;;;2.97;;
54261;SDS011;40174;52.364;6.452;2022-07-04T06:44:24;10.32;;;3.45;;
54261;SDS011;40174;52.364;6.452;2022-07-04T06:46:51;6.82;;;3.22;;
54261;SDS011;40174;52.364;6.452;2022-07-04T06:49:18;10.23;;;2.90;;
54261;SDS011;40174;52.364;6.452;2022-07-04T06:51:45;6.90;;;2.80;;
54261;SDS011;40174;52.364;6.452;2022-07-04T06:54:11;9.77;;;2.90;;
54261;SDS011;40174;52.364;6.452;2022-07-04T06:56:38;8.73;;;3.53;;
54261;SDS011;40174;52.364;6.452;2022-07-04T06:59:04;10.50;;;3.40;;
54261;SDS011;40174;52.364;6.452;2022-07-04T07:01:32;8.52;;;3.47;;
54261;SDS011;40174;52.364;6.452;2022-07-04T07:03:59;8.70;;;3.05;;
54261;SDS011;40174;52.364;6.452;2022-07-04T07:06:25;7.38;;;2.92;;
54261;SDS011;40174;52.364;6.452;2022-07-04T07:08:52;7.47;;;2.92;;
54261;SDS011;40174;52.364;6.452;2022-07-04T07:11:18;9.68;;;3.28;;
54261;SDS011;40174;52.364;6.452;2022-07-04T07:13:46;7.45;;;2.97;;
54261;SDS011;40174;52.364;6.452;2022-07-04T07:16:15;7.97;;;3.17;;
54261;SDS011;40174;52.364;6.452;2022-07-04T07:18:43;7.40;;;2.92;;
54261;SDS011;40174;52.364;6.452;2022-07-04T07:21:10;8.10;;;3.25;;
54261;SDS011;40174;52.364;6.452;2022-07-04T07:23:37;6.13;;;2.75;;
54261;SDS011;40174;52.364;6.452;2022-07-04T07:26:05;6.85;;;2.40;;
54261;SDS011;40174;52.364;6.452;2022-07-04T07:28:32;16.08;;;3.17;;
54261;SDS011;40174;52.364;6.452;2022-07-04T07:30:58;8.02;;;3.13;;
54261;SDS011;40174;52.364;6.452;2022-07-04T07:33:26;8.07;;;3.42;;
54261;SDS011;40174;52.364;6.452;2022-07-04T07:35:54;8.18;;;2.78;;
54261;SDS011;40174;52.364;6.452;2022-07-04T07:38:21;8.80;;;2.05;;
54261;SDS011;40174;52.364;6.452;2022-07-04T07:40:47;11.77;;;2.85;;
54261;SDS011;40174;52.364;6.452;2022-07-04T07:43:14;8.38;;;2.50;;
54261;SDS011;40174;52.364;6.452;2022-07-04T07:45:40;10.10;;;2.80;;
54261;SDS011;40174;52.364;6.452;2022-07-04T07:48:07;11.85;;;3.10;;
54261;SDS011;40174;52.364;6.452;2022-07-04T07:50:33;14.38;;;2.97;;
54261;SDS011;40174;52.364;6.452;2022-07-04T07:53:02;7.13;;;2.65;;
54261;SDS011;40174;52.364;6.452;2022-07-04T07:55:29;7.63;;;2.50;;
54261;SDS011;40174;52.364;6.452;2022-07-04T07:57:55;7.93;;;2.65;;
54261;SDS011;40174;52.364;6.452;2022-07-04T08:00:23;9.30;;;2.70;;
54261;SDS011;40174;52.364;6.452;2022-07-04T08:02:50;8.40;;;2.80;;
54261;SDS011;40174;52.364;6.452;2022-07-04T08:05:34;8.35;;;2.92;;
54261;SDS011;40174;52.364;6.452;2022-07-04T08:08:03;6.05;;;2.53;;
54261;SDS011;40174;52.364;6.452;2022-07-04T08:10:32;9.52;;;2.85;;
54261;SDS011;40174;52.364;6.452;2022-07-04T08:12:59;9.10;;;2.55;;
54261;SDS011;40174;52.364;6.452;2022-07-04T08:15:25;7.55;;;2.53;;
54261;SDS011;40174;52.364;6.452;2022-07-04T08:17:52;5.18;;;2.42;;
54261;SDS011;40174;52.364;6.452;2022-07-04T08:20:19;9.85;;;3.00;;
54261;SDS011;40174;52.364;6.452;2022-07-04T08:22:46;7.95;;;2.17;;
54261;SDS011;40174;52.364;6.452;2022-07-04T08:25:13;8.32;;;2.63;;
54261;SDS011;40174;52.364;6.452;2022-07-04T08:27:42;4.82;;;2.00;;
54261;SDS011;40174;52.364;6.452;2022-07-04T08:30:08;8.18;;;2.30;;
54261;SDS011;40174;52.364;6.452;2022-07-04T08:32:35;6.75;;;2.05;;
54261;SDS011;40174;52.364;6.452;2022-07-04T08:35:02;4.47;;;2.10;;
54261;SDS011;40174;52.364;6.452;2022-07-04T08:37:29;8.82;;;2.35;;
54261;SDS011;40174;52.364;6.452;2022-07-04T08:39:56;6.00;;;1.98;;
54261;SDS011;40174;52.364;6.452;2022-07-04T08:42:24;7.15;;;2.00;;
54261;SDS011;40174;52.364;6.452;2022-07-04T08:44:53;11.98;;;1.92;;
54261;SDS011;40174;52.364;6.452;2022-07-04T08:47:21;6.78;;;2.20;;
54261;SDS011;40174;52.364;6.452;2022-07-04T08:49:52;5.20;;;1.73;;
54261;SDS011;40174;52.364;6.452;2022-07-04T08:54:57;9.18;;;1.80;;
54261;SDS011;40174;52.364;6.452;2022-07-04T08:57:43;5.15;;;1.52;;
54261;SDS011;40174;52.364;6.452;2022-07-04T09:02:54;5.07;;;1.77;;
54261;SDS011;40174;52.364;6.452;2022-07-04T09:05:22;5.88;;;1.50;;
54261;SDS011;40174;52.364;6.452;2022-07-04T09:07:48;6.60;;;1.70;;
54261;SDS011;40174;52.364;6.452;2022-07-04T09:10:15;7.13;;;2.20;;
54261;SDS011;40174;52.364;6.452;2022-07-04T09:12:44;7.70;;;1.90;;
54261;SDS011;40174;52.364;6.452;2022-07-04T09:15:10;6.88;;;1.75;;
54261;SDS011;40174;52.364;6.452;2022-07-04T09:17:37;3.72;;;1.38;;
54261;SDS011;40174;52.364;6.452;2022-07-04T09:20:12;6.93;;;1.70;;
54261;SDS011;40174;52.364;6.452;2022-07-04T09:25:06;5.65;;;1.73;;
54261;SDS011;40174;52.364;6.452;2022-07-04T09:27:34;5.50;;;1.80;;
54261;SDS011;40174;52.364;6.452;2022-07-04T09:30:03;3.92;;;1.35;;
54261;SDS011;40174;52.364;6.452;2022-07-04T09:32:34;5.25;;;1.17;;
54261;SDS011;40174;52.364;6.452;2022-07-04T09:35:03;5.30;;;1.15;;
54261;SDS011;40174;52.364;6.452;2022-07-04T09:37:34;7.65;;;1.35;;
54261;SDS011;40174;52.364;6.452;2022-07-04T09:40:03;3.22;;;1.20;;
54261;SDS011;40174;52.364;6.452;2022-07-04T09:42:34;3.10;;;1.10;;
54261;SDS011;40174;52.364;6.452;2022-07-04T09:45:05;4.30;;;1.55;;
54261;SDS011;40174;52.364;6.452;2022-07-04T09:47:34;3.88;;;1.15;;
54261;SDS011;40174;52.364;6.452;2022-07-04T09:50:02;2.90;;;1.10;;
54261;SDS011;40174;52.364;6.452;2022-07-04T09:52:30;2.55;;;0.95;;
54261;SDS011;40174;52.364;6.452;2022-07-04T09:54:58;4.72;;;1.67;;
54261;SDS011;40174;52.364;6.452;2022-07-04T09:57:25;2.70;;;0.90;;
54261;SDS011;40174;52.364;6.452;2022-07-04T09:59:51;3.20;;;1.33;;
54261;SDS011;40174;52.364;6.452;2022-07-04T10:02:19;3.80;;;1.13;;
54261;SDS011;40174;52.364;6.452;2022-07-04T10:04:47;2.63;;;1.10;;
54261;SDS011;40174;52.364;6.452;2022-07-04T10:07:29;2.88;;;1.00;;
54261;SDS011;40174;52.364;6.452;2022-07-04T10:09:58;2.80;;;1.10;;
54261;SDS011;40174;52.364;6.452;2022-07-04T10:12:25;3.78;;;1.20;;
54261;SDS011;40174;52.364;6.452;2022-07-04T10:14:53;1.85;;;0.88;;
54261;SDS011;40174;52.364;6.452;2022-07-04T10:17:21;4.03;;;0.98;;
54261;SDS011;40174;52.364;6.452;2022-07-04T10:19:48;2.67;;;0.90;;
54261;SDS011;40174;52.364;6.452;2022-07-04T10:22:17;3.13;;;0.82;;
54261;SDS011;40174;52.364;6.452;2022-07-04T10:24:46;6.15;;;1.60;;
54261;SDS011;40174;52.364;6.452;2022-07-04T10:27:13;6.75;;;1.35;;
54261;SDS011;40174;52.364;6.452;2022-07-04T10:29:40;4.13;;;1.20;;
54261;SDS011;40174;52.364;6.452;2022-07-04T10:32:07;1.83;;;0.98;;
54261;SDS011;40174;52.364;6.452;2022-07-04T10:34:40;4.15;;;1.13;;
54261;SDS011;40174;52.364;6.452;2022-07-04T10:37:07;5.25;;;1.50;;
54261;SDS011;40174;52.364;6.452;2022-07-04T10:39:33;5.93;;;1.52;;
54261;SDS011;40174;52.364;6.452;2022-07-04T10:42:00;5.57;;;1.10;;
54261;SDS011;40174;52.364;6.452;2022-07-04T10:44:28;5.28;;;1.20;;
54261;SDS011;40174;52.364;6.452;2022-07-04T10:47:02;4.27;;;1.20;;
54261;SDS011;40174;52.364;6.452;2022-07-04T10:49:29;3.60;;;1.05;;
54261;SDS011;40174;52.364;6.452;2022-07-04T10:52:08;3.35;;;0.88;;
54261;SDS011;40174;52.364;6.452;2022-07-04T10:54:36;3.58;;;1.10;;
54261;SDS011;40174;52.364;6.452;2022-07-04T10:57:13;8.50;;;1.33;;
54261;SDS011;40174;52.364;6.452;2022-07-04T10:59:42;5.20;;;1.48;;
54261;SDS011;40174;52.364;6.452;2022-07-04T11:02:23;4.78;;;1.08;;
54261;SDS011;40174;52.364;6.452;2022-07-04T11:04:51;3.35;;;0.98;;
54261;SDS011;40174;52.364;6.452;2022-07-04T11:07:21;5.57;;;1.23;;
54261;SDS011;40174;52.364;6.452;2022-07-04T11:15:58;4.50;;;1.05;;
54261;SDS011;40174;52.364;6.452;2022-07-04T11:18:27;1.15;;;0.90;;
54261;SDS011;40174;52.364;6.452;2022-07-04T11:20:55;4.72;;;0.90;;
54261;SDS011;40174;52.364;6.452;2022-07-04T11:23:23;3.58;;;0.77;;
54261;SDS011;40174;52.364;6.452;2022-07-04T11:25:50;2.45;;;1.00;;
54261;SDS011;40174;52.364;6.452;2022-07-04T11:28:19;2.65;;;0.80;;
54261;SDS011;40174;52.364;6.452;2022-07-04T11:30:50;2.47;;;0.82;;
54261;SDS011;40174;52.364;6.452;2022-07-04T11:33:18;1.48;;;0.65;;
54261;SDS011;40174;52.364;6.452;2022-07-04T11:36:00;4.25;;;1.25;;
54261;SDS011;40174;52.364;6.452;2022-07-04T11:41:12;6.82;;;1.27;;
54261;SDS011;40174;52.364;6.452;2022-07-04T11:43:56;2.20;;;1.03;;
54261;SDS011;40174;52.364;6.452;2022-07-04T11:46:41;3.20;;;0.90;;
54261;SDS011;40174;52.364;6.452;2022-07-04T11:49:08;0.88;;;0.50;;
54261;SDS011;40174;52.364;6.452;2022-07-04T11:51:35;2.05;;;0.88;;
54261;SDS011;40174;52.364;6.452;2022-07-04T11:54:06;2.05;;;0.85;;
54261;SDS011;40174;52.364;6.452;2022-07-04T11:56:32;2.55;;;0.95;;
54261;SDS011;40174;52.364;6.452;2022-07-04T11:59:08;1.05;;;0.50;;
54261;SDS011;40174;52.364;6.452;2022-07-04T12:01:37;2.53;;;1.00;;
54261;SDS011;40174;52.364;6.452;2022-07-04T12:04:10;2.10;;;0.70;;
54261;SDS011;40174;52.364;6.452;2022-07-04T12:06:41;3.92;;;1.00;;
54261;SDS011;40174;52.364;6.452;2022-07-04T12:09:10;1.60;;;0.70;;
54261;SDS011;40174;52.364;6.452;2022-07-04T12:14:31;1.63;;;0.70;;
54261;SDS011;40174;52.364;6.452;2022-07-04T12:17:12;1.10;;;0.60;;
54261;SDS011;40174;52.364;6.452;2022-07-04T12:19:50;5.32;;;0.70;;
54261;SDS011;40174;52.364;6.452;2022-07-04T12:25:20;2.40;;;0.70;;
54261;SDS011;40174;52.364;6.452;2022-07-04T12:27:55;4.47;;;1.15;;
54261;SDS011;40174;52.364;6.452;2022-07-04T12:30:23;2.05;;;0.63;;
54261;SDS011;40174;52.364;6.452;2022-07-04T12:32:51;2.38;;;0.73;;
54261;SDS011;40174;52.364;6.452;2022-07-04T12:35:36;3.53;;;0.65;;
54261;SDS011;40174;52.364;6.452;2022-07-04T12:40:33;1.35;;;0.68;;
54261;SDS011;40174;52.364;6.452;2022-07-04T12:43:00;2.72;;;0.70;;
54261;SDS011;40174;52.364;6.452;2022-07-04T12:45:40;1.05;;;0.50;;
54261;SDS011;40174;52.364;6.452;2022-07-04T12:48:13;1.08;;;0.57;;
54261;SDS011;40174;52.364;6.452;2022-07-04T12:50:41;1.05;;;0.60;;
54261;SDS011;40174;52.364;6.452;2022-07-04T12:53:08;1.30;;;0.60;;
54261;SDS011;40174;52.364;6.452;2022-07-04T12:55:38;1.10;;;0.68;;
54261;SDS011;40174;52.364;6.452;2022-07-04T12:58:07;1.27;;;0.68;;
54261;SDS011;40174;52.364;6.452;2022-07-04T13:00:33;1.67;;;0.85;;
54261;SDS011;40174;52.364;6.452;2022-07-04T13:03:00;2.17;;;0.85;;
54261;SDS011;40174;52.364;6.452;2022-07-04T13:05:27;2.28;;;0.63;;
54261;SDS011;40174;52.364;6.452;2022-07-04T13:07:53;1.65;;;0.60;;
54261;SDS011;40174;52.364;6.452;2022-07-04T13:10:20;0.82;;;0.50;;
54261;SDS011;40174;52.364;6.452;2022-07-04T13:12:48;2.50;;;0.80;;
54261;SDS011;40174;52.364;6.452;2022-07-04T13:15:14;3.95;;;0.80;;
54261;SDS011;40174;52.364;6.452;2022-07-04T13:17:41;1.75;;;0.60;;
54261;SDS011;40174;52.364;6.452;2022-07-04T13:20:08;2.20;;;0.70;;
54261;SDS011;40174;52.364;6.452;2022-07-04T13:22:35;1.35;;;0.60;;
54261;SDS011;40174;52.364;6.452;2022-07-04T13:25:01;3.15;;;0.85;;
54261;SDS011;40174;52.364;6.452;2022-07-04T13:27:28;0.85;;;0.70;;
54261;SDS011;40174;52.364;6.452;2022-07-04T13:29:56;2.20;;;0.70;;
54261;SDS011;40174;52.364;6.452;2022-07-04T13:32:23;1.40;;;0.73;;
54261;SDS011;40174;52.364;6.452;2022-07-04T13:34:49;4.00;;;0.70;;
54261;SDS011;40174;52.364;6.452;2022-07-04T13:37:16;2.72;;;1.13;;
54261;SDS011;40174;52.364;6.452;2022-07-04T13:39:44;1.00;;;0.82;;
54261;SDS011;40174;52.364;6.452;2022-07-04T13:42:10;2.50;;;0.75;;
54261;SDS011;40174;52.364;6.452;2022-07-04T13:44:38;0.57;;;0.50;;
54261;SDS011;40174;52.364;6.452;2022-07-04T13:47:06;1.02;;;0.50;;
54261;SDS011;40174;52.364;6.452;2022-07-04T13:49:32;2.20;;;0.60;;
54261;SDS011;40174;52.364;6.452;2022-07-04T13:51:59;1.73;;;0.65;;
54261;SDS011;40174;52.364;6.452;2022-07-04T13:54:25;4.10;;;0.73;;
54261;SDS011;40174;52.364;6.452;2022-07-04T13:56:52;2.35;;;0.50;;
54261;SDS011;40174;52.364;6.452;2022-07-04T13:59:19;1.25;;;0.68;;
54261;SDS011;40174;52.364;6.452;2022-07-04T14:01:45;2.08;;;0.80;;
54261;SDS011;40174;52.364;6.452;2022-07-04T14:04:14;4.80;;;0.73;;
54261;SDS011;40174;52.364;6.452;2022-07-04T14:06:40;2.00;;;0.70;;
54261;SDS011;40174;52.364;6.452;2022-07-04T14:09:07;1.48;;;0.90;;
54261;SDS011;40174;52.364;6.452;2022-07-04T14:11:33;1.77;;;0.75;;
54261;SDS011;40174;52.364;6.452;2022-07-04T14:14:00;2.30;;;0.80;;
54261;SDS011;40174;52.364;6.452;2022-07-04T14:16:26;2.15;;;0.93;;
54261;SDS011;40174;52.364;6.452;2022-07-04T14:18:53;2.00;;;0.60;;
54261;SDS011;40174;52.364;6.452;2022-07-04T14:21:21;1.27;;;0.68;;
54261;SDS011;40174;52.364;6.452;2022-07-04T14:23:47;2.50;;;0.63;;
54261;SDS011;40174;52.364;6.452;2022-07-04T14:26:15;1.20;;;0.55;;
54261;SDS011;40174;52.364;6.452;2022-07-04T14:28:44;2.40;;;0.68;;
54261;SDS011;40174;52.364;6.452;2022-07-04T14:31:11;1.23;;;0.60;;
54261;SDS011;40174;52.364;6.452;2022-07-04T14:33:38;2.85;;;0.70;;
54261;SDS011;40174;52.364;6.452;2022-07-04T14:36:05;1.55;;;0.60;;
54261;SDS011;40174;52.364;6.452;2022-07-04T14:38:34;2.95;;;0.70;;
54261;SDS011;40174;52.364;6.452;2022-07-04T14:41:01;2.60;;;0.70;;
54261;SDS011;40174;52.364;6.452;2022-07-04T14:43:38;1.55;;;0.60;;
54261;SDS011;40174;52.364;6.452;2022-07-04T14:46:05;1.55;;;0.80;;
54261;SDS011;40174;52.364;6.452;2022-07-04T14:48:32;1.38;;;0.57;;
54261;SDS011;40174;52.364;6.452;2022-07-04T14:51:00;0.85;;;0.68;;
54261;SDS011;40174;52.364;6.452;2022-07-04T14:53:26;1.13;;;0.68;;
54261;SDS011;40174;52.364;6.452;2022-07-04T14:55:57;0.85;;;0.60;;
54261;SDS011;40174;52.364;6.452;2022-07-04T14:58:24;3.40;;;0.80;;
54261;SDS011;40174;52.364;6.452;2022-07-04T15:00:50;0.50;;;0.50;;
54261;SDS011;40174;52.364;6.452;2022-07-04T15:03:17;3.58;;;0.63;;
54261;SDS011;40174;52.364;6.452;2022-07-04T15:05:43;1.55;;;0.68;;
54261;SDS011;40174;52.364;6.452;2022-07-04T15:08:10;1.70;;;0.80;;
54261;SDS011;40174;52.364;6.452;2022-07-04T15:10:36;2.70;;;0.70;;
54261;SDS011;40174;52.364;6.452;2022-07-04T15:13:04;1.95;;;0.57;;
54261;SDS011;40174;52.364;6.452;2022-07-04T15:15:31;1.38;;;0.60;;
54261;SDS011;40174;52.364;6.452;2022-07-04T15:17:58;2.35;;;0.73;;